Time;durP1;ratioP1;P1;durP2;ratioP2;P2;SDS_P1;SDS_P2;PMS_P1;PMS_P2;Temp;Humidity;BMP_temperature;BMP_pressure;BME280_temperature;BME280_humidity;BME280_pressure;Samples;Min_cycle;Max_cycle;Signal;HPM_P1;HPM_P2
2023/05/02 00:01:15;;;;;;;21.70;9.40;;;;;;;11.45;45.02;100404.02;111016;1209;99111;-60
2023/05/02 00:03:42;;;;;;;26.80;9.90;;;;;;;11.45;45.19;100404.74;111097;1206;98977;-60
2023/05/02 00:06:07;;;;;;;19.40;9.00;;;;;;;11.45;45.32;100398.88;110932;1212;137971;-61
2023/05/02 00:08:33;;;;;;;18.10;9.80;;;;;;;11.44;45.27;100396.41;111121;1206;99072;-61
2023/05/02 00:10:58;;;;;;;23.20;10.00;;;;;;;11.42;45.39;100392.58;111050;1218;139774;-60
2023/05/02 00:13:23;;;;;;;23.20;9.20;;;;;;;11.41;45.62;100395.30;111057;1212;100328;-60
2023/05/02 00:15:48;;;;;;;23.10;9.40;;;;;;;11.40;45.59;100394.98;110924;1206;140176;-60
2023/05/02 00:18:14;;;;;;;20.90;9.10;;;;;;;11.37;45.74;100394.20;111044;1212;99130;-60
2023/05/02 00:20:40;;;;;;;24.90;10.10;;;;;;;11.36;46.01;100388.75;111194;1206;99041;-61
2023/05/02 00:23:06;;;;;;;23.00;9.00;;;;;;;11.35;46.08;100387.00;110861;1211;138682;-61
2023/05/02 00:25:31;;;;;;;18.90;9.40;;;;;;;11.36;46.19;100386.58;111123;1210;98967;-60
2023/05/02 00:27:57;;;;;;;17.90;8.90;;;;;;;11.36;46.33;100383.02;110972;1211;139972;-61
2023/05/02 00:30:22;;;;;;;17.20;8.60;;;;;;;11.36;46.38;100381.58;111003;1212;100222;-60
2023/05/02 00:32:48;;;;;;;25.30;9.20;;;;;;;11.36;46.43;100382.09;111100;1206;99033;-61
2023/05/02 00:35:13;;;;;;;21.10;9.30;;;;;;;11.34;46.60;100380.41;111030;1212;138308;-61
2023/05/02 00:37:38;;;;;;;20.40;8.30;;;;;;;11.33;46.65;100381.73;111045;1206;98963;-60
2023/05/02 00:40:04;;;;;;;16.60;8.20;;;;;;;11.33;46.79;100382.44;110978;1209;139914;-61
2023/05/02 00:42:33;;;;;;;16.30;8.00;;;;;;;11.34;47.15;100377.56;111099;1212;98925;-61
2023/05/02 00:44:59;;;;;;;21.90;8.40;;;;;;;11.35;47.31;100378.41;111136;1206;98996;-61
2023/05/02 00:47:25;;;;;;;18.10;8.30;;;;;;;11.36;47.38;100373.73;111025;1218;138709;-61
2023/05/02 00:49:50;;;;;;;22.80;9.00;;;;;;;11.38;47.53;100376.66;111219;1206;99335;-60
2023/05/02 00:52:15;;;;;;;15.20;7.80;;;;;;;11.39;47.70;100375.67;110985;1209;139094;-61
2023/05/02 00:54:42;;;;;;;17.80;9.00;;;;;;;11.40;47.79;100374.55;111046;1206;97926;-60
2023/05/02 00:57:07;;;;;;;16.40;8.30;;;;;;;11.43;47.90;100375.88;111067;1206;112840;-61
2023/05/02 00:59:35;;;;;;;15.90;8.90;;;;;;;11.44;48.06;100370.62;111030;1211;138866;-61
2023/05/02 01:02:33;;;;;;;24.30;9.60;;;;;;;11.45;48.14;100373.63;111236;1212;99324;-61
2023/05/02 01:05:13;;;;;;;15.40;8.10;;;;;;;11.43;48.28;100371.02;111045;1226;138749;-60
2023/05/02 01:08:03;;;;;;;16.20;7.90;;;;;;;11.41;48.31;100370.94;111076;1211;99021;-61
2023/05/02 01:10:51;;;;;;;16.40;7.70;;;;;;;11.39;48.61;100369.96;110937;1206;140021;-61
2023/05/02 01:13:24;;;;;;;17.60;8.00;;;;;;;11.39;48.79;100372.99;111026;1211;100246;-60
2023/05/02 01:15:52;;;;;;;14.60;7.60;;;;;;;11.41;48.97;100371.65;110968;1211;138609;-61
2023/05/02 01:18:21;;;;;;;17.40;8.30;;;;;;;11.43;48.91;100373.58;111075;1206;99009;-60
2023/05/02 01:20:52;;;;;;;15.20;7.80;;;;;;;11.40;49.25;100370.29;111231;1212;98933;-60
2023/05/02 01:23:44;;;;;;;16.10;7.60;;;;;;;11.41;49.47;100375.08;111034;1206;138289;-60
2023/05/02 01:26:20;;;;;;;17.20;8.30;;;;;;;11.42;49.55;100374.14;111103;1206;99816;-60
2023/05/02 01:28:59;;;;;;;19.10;8.50;;;;;;;11.42;49.67;100374.13;110890;1212;140255;-60
2023/05/02 01:31:26;;;;;;;19.30;7.70;;;;;;;11.42;49.95;100370.77;111077;1225;99042;-61
2023/05/02 01:33:53;;;;;;;17.60;8.30;;;;;;;11.43;50.14;100371.24;110904;1206;138254;-60
2023/05/02 01:36:20;;;;;;;15.70;7.90;;;;;;;11.44;50.22;100372.59;111124;1211;99043;-61
2023/05/02 01:38:47;;;;;;;17.40;8.40;;;;;;;11.45;50.38;100373.79;111012;1210;98874;-60
2023/05/02 01:41:13;;;;;;;18.70;7.80;;;;;;;11.46;50.66;100378.05;111000;1212;138261;-60
2023/05/02 01:43:41;;;;;;;17.80;8.80;;;;;;;11.48;50.71;100377.77;111119;1212;99992;-61
2023/05/02 01:46:09;;;;;;;14.90;8.20;;;;;;;11.50;50.88;100378.38;110927;1212;139935;-60
2023/05/02 01:48:36;;;;;;;19.90;8.40;;;;;;;11.50;51.07;100381.43;111224;1208;99585;-61
2023/05/02 01:51:03;;;;;;;15.50;8.10;;;;;;;11.51;51.47;100374.75;111042;1212;99047;-60
2023/05/02 01:53:33;;;;;;;16.60;8.20;;;;;;;11.51;51.72;100374.38;110826;1206;139173;-61
2023/05/02 01:55:59;;;;;;;18.60;7.80;;;;;;;11.51;51.32;100375.29;111288;1211;99115;-61
2023/05/02 01:58:29;;;;;;;17.00;8.30;;;;;;;11.50;51.69;100375.35;110937;1206;138878;-60
2023/05/02 02:00:58;;;;;;;19.10;8.70;;;;;;;11.50;51.83;100373.56;111017;1211;99104;-61
2023/05/02 02:03:25;;;;;;;19.10;8.40;;;;;;;11.50;51.94;100371.75;111060;1206;108022;-60
2023/05/02 02:05:54;;;;;;;19.70;8.30;;;;;;;11.51;52.03;100370.96;110963;1212;138268;-60
2023/05/02 02:08:19;;;;;;;15.50;8.00;;;;;;;11.52;52.30;100370.20;110989;1212;99238;-60
2023/05/02 02:10:53;;;;;;;28.70;9.20;;;;;;;11.50;52.33;100368.15;110918;1212;138083;-60
2023/05/02 02:13:44;;;;;;;15.80;9.00;;;;;;;11.49;52.46;100366.44;110956;1211;99398;-60
2023/05/02 02:16:13;;;;;;;22.30;8.70;;;;;;;11.50;52.60;100361.75;110972;1206;138514;-60
2023/05/02 02:18:41;;;;;;;19.40;8.20;;;;;;;11.50;52.86;100367.42;111092;1212;100119;-60
2023/05/02 02:21:10;;;;;;;16.50;8.60;;;;;;;11.52;52.84;100369.67;111078;1211;99196;-60
2023/05/02 02:23:38;;;;;;;15.90;8.00;;;;;;;11.54;53.00;100377.26;110982;1205;139735;-60
2023/05/02 02:26:05;;;;;;;17.20;8.00;;;;;;;11.55;53.09;100376.70;111127;1211;99596;-60
2023/05/02 02:28:32;;;;;;;17.20;8.30;;;;;;;11.55;53.27;100379.71;111203;1206;138788;-61
2023/05/02 02:30:57;;;;;;;17.30;8.20;;;;;;;11.55;53.39;100378.46;111130;1212;99088;-61
2023/05/02 02:33:28;;;;;;;15.20;8.30;;;;;;;11.57;53.43;100383.92;111082;1206;98681;-60
2023/05/02 02:36:12;;;;;;;19.60;8.60;;;;;;;11.58;53.72;100384.39;110968;1211;138591;-60
2023/05/02 02:38:44;;;;;;;20.10;9.40;;;;;;;11.58;53.61;100386.52;111083;1206;107791;-61
2023/05/02 02:41:15;;;;;;;18.30;8.90;;;;;;;11.57;53.81;100389.09;111063;1212;138389;-60
2023/05/02 02:43:58;;;;;;;19.80;9.80;;;;;;;11.53;53.85;100390.04;111124;1211;99015;-63
2023/05/02 02:46:47;;;;;;;23.40;9.40;;;;;;;11.45;53.99;100401.14;110962;1210;138899;-60
2023/05/02 02:49:30;;;;;;;18.50;9.90;;;;;;;11.40;54.13;100406.05;111092;1211;99837;-61
2023/05/02 02:52:15;;;;;;;16.80;9.00;;;;;;;11.36;54.49;100405.92;110907;1206;140653;-61
2023/05/02 02:54:46;;;;;;;20.20;10.20;;;;;;;11.33;54.50;100415.34;111020;1211;99153;-60
2023/05/02 02:58:00;;;;;;;23.50;10.60;;;;;;;11.31;54.57;100407.59;110994;1212;99265;-60
2023/05/02 03:00:27;;;;;;;22.00;9.90;;;;;;;11.33;54.64;100410.91;110885;1214;113083;-60
2023/05/02 03:02:53;;;;;;;18.60;8.80;;;;;;;11.33;54.85;100417.30;111088;1211;99056;-60
2023/05/02 03:05:21;;;;;;;18.40;8.60;;;;;;;11.33;54.80;100424.84;111012;1212;139875;-60
2023/05/02 03:07:46;;;;;;;22.60;10.30;;;;;;;11.28;54.87;100426.17;111025;1212;99079;-60
2023/05/02 03:10:11;;;;;;;17.70;10.30;;;;;;;11.23;55.18;100431.60;111079;1206;140432;-61
2023/05/02 03:12:38;;;;;;;20.40;10.80;;;;;;;11.25;55.60;100428.63;110996;1206;98996;-60
2023/05/02 03:15:25;;;;;;;18.50;10.20;;;;;;;11.29;55.66;100428.43;111043;1206;99114;-60
2023/05/02 03:17:50;;;;;;;23.30;10.00;;;;;;;11.35;55.70;100434.73;110920;1210;139567;-60
2023/05/02 03:20:16;;;;;;;20.40;9.80;;;;;;;11.40;55.63;100434.36;111100;1219;98934;-60
2023/05/02 03:22:41;;;;;;;18.30;9.30;;;;;;;11.43;55.76;100427.94;110999;1205;138810;-60
2023/05/02 03:25:07;;;;;;;17.90;8.50;;;;;;;11.48;55.88;100424.31;111080;1212;99072;-61
2023/05/02 03:27:33;;;;;;;16.20;9.00;;;;;;;11.51;55.89;100421.44;111174;1206;99040;-60
2023/05/02 03:29:59;;;;;;;29.80;9.30;;;;;;;11.54;56.06;100430.39;110935;1211;139563;-61
2023/05/02 03:32:24;;;;;;;20.60;9.10;;;;;;;11.58;56.09;100431.64;111001;1211;99095;-60
2023/05/02 03:34:49;;;;;;;13.70;7.60;;;;;;;11.62;56.08;100436.45;110980;1211;138711;-61
2023/05/02 03:37:15;;;;;;;13.30;7.60;;;;;;;11.63;56.09;100442.14;111146;1210;99009;-60
2023/05/02 03:39:40;;;;;;;18.40;8.90;;;;;;;11.64;56.26;100445.48;111199;1211;99149;-60
2023/05/02 03:42:05;;;;;;;16.00;8.30;;;;;;;11.64;56.47;100449.77;110960;1211;138500;-60
2023/05/02 03:44:30;;;;;;;20.20;8.80;;;;;;;11.64;56.75;100462.61;111048;1206;99712;-61
2023/05/02 03:46:56;;;;;;;15.30;8.10;;;;;;;11.65;56.88;100468.52;110921;1218;139205;-60
2023/05/02 03:49:21;;;;;;;18.30;8.70;;;;;;;11.65;57.14;100475.48;111087;1206;98973;-60
2023/05/02 03:51:46;;;;;;;24.30;8.60;;;;;;;11.68;57.42;100479.80;111139;1206;99063;-60
2023/05/02 03:54:11;;;;;;;18.80;8.70;;;;;;;11.71;57.31;100489.85;110982;1211;138715;-60
2023/05/02 03:56:38;;;;;;;14.50;8.60;;;;;;;11.76;57.30;100500.91;111090;1211;99037;-61
2023/05/02 03:59:03;;;;;;;20.50;9.90;;;;;;;11.77;57.46;100503.38;111015;1206;140351;-60
2023/05/02 04:01:28;;;;;;;14.70;8.30;;;;;;;11.77;57.43;100508.73;111076;1211;99089;-61
2023/05/02 04:03:54;;;;;;;18.70;9.50;;;;;;;11.75;57.47;100507.02;110933;1216;139138;-60
2023/05/02 04:06:19;;;;;;;14.70;8.50;;;;;;;11.73;57.59;100506.04;110941;1210;99041;-61
2023/05/02 04:08:44;;;;;;;16.70;9.00;;;;;;;11.71;57.79;100507.58;111022;1210;98996;-60
2023/05/02 04:11:09;;;;;;;16.20;9.50;;;;;;;11.69;57.80;100511.27;110974;1211;139435;-60
2023/05/02 04:13:35;;;;;;;18.30;9.20;;;;;;;11.62;57.88;100518.02;111157;1206;99145;-60
2023/05/02 04:16:00;;;;;;;25.40;10.00;;;;;;;11.56;58.26;100520.48;110985;1206;140481;-60
2023/05/02 04:18:25;;;;;;;16.60;8.80;;;;;;;11.51;58.25;100522.03;110971;1211;98647;-60
2023/05/02 04:20:50;;;;;;;19.20;9.90;;;;;;;11.43;58.51;100524.36;111013;1209;97763;-60
2023/05/02 04:23:16;;;;;;;14.80;8.80;;;;;;;11.37;58.69;100533.21;110820;1211;139598;-61
2023/05/02 04:25:50;;;;;;;16.90;8.20;;;;;;;11.33;58.95;100534.84;111134;1206;99013;-60
2023/05/02 04:28:15;;;;;;;15.50;9.10;;;;;;;11.32;59.02;100532.77;110907;1222;140186;-60
2023/05/02 04:30:41;;;;;;;20.40;8.50;;;;;;;11.32;59.09;100536.70;110965;1219;99029;-60
2023/05/02 04:33:06;;;;;;;20.90;9.50;;;;;;;11.31;59.27;100533.70;111180;1211;99122;-61
2023/05/02 04:35:32;;;;;;;18.10;10.70;;;;;;;11.32;59.41;100537.04;110904;1210;139485;-60
2023/05/02 04:37:57;;;;;;;19.50;9.70;;;;;;;11.33;59.38;100534.65;111150;1211;98881;-60
2023/05/02 04:40:22;;;;;;;20.70;9.00;;;;;;;11.32;59.59;100535.98;110911;1210;139774;-61
2023/05/02 04:42:47;;;;;;;20.50;9.40;;;;;;;11.30;59.78;100531.64;111073;1211;100503;-60
2023/05/02 04:45:14;;;;;;;17.60;9.90;;;;;;;11.29;59.90;100530.39;111068;1211;99637;-60
2023/05/02 04:47:39;;;;;;;18.90;9.60;;;;;;;11.30;60.00;100532.66;110937;1206;141390;-60
2023/05/02 04:50:05;;;;;;;16.80;9.10;;;;;;;11.31;60.21;100530.98;111119;1206;99165;-60
2023/05/02 04:52:31;;;;;;;16.50;8.50;;;;;;;11.31;60.25;100531.75;110874;1206;139097;-60
2023/05/02 04:54:56;;;;;;;15.80;8.80;;;;;;;11.30;60.32;100531.44;111065;1210;100121;-61
2023/05/02 04:57:21;;;;;;;19.50;9.90;;;;;;;11.30;60.51;100531.95;111117;1211;99197;-60
2023/05/02 04:59:47;;;;;;;17.00;8.70;;;;;;;11.30;60.49;100540.72;110888;1210;139388;-60
2023/05/02 05:02:12;;;;;;;15.30;9.00;;;;;;;11.31;60.59;100540.51;111074;1211;99036;-60
2023/05/02 05:04:38;;;;;;;14.90;8.10;;;;;;;11.31;60.75;100540.48;110908;1211;139500;-61
2023/05/02 05:07:03;;;;;;;23.20;10.20;;;;;;;11.32;60.68;100539.56;111087;1211;98967;-60
2023/05/02 05:09:28;;;;;;;21.60;9.90;;;;;;;11.32;60.72;100543.52;111129;1211;98953;-61
2023/05/02 05:11:53;;;;;;;19.80;9.70;;;;;;;11.32;60.77;100539.76;110903;1211;138750;-61
2023/05/02 05:14:19;;;;;;;19.20;9.20;;;;;;;11.33;61.11;100543.24;111122;1205;99034;-61
2023/05/02 05:16:44;;;;;;;12.90;8.10;;;;;;;11.36;61.04;100540.63;110955;1211;139005;-61
2023/05/02 05:19:10;;;;;;;17.10;8.50;;;;;;;11.38;61.20;100542.67;111131;1206;99000;-60
2023/05/02 05:21:35;;;;;;;19.10;9.50;;;;;;;11.41;61.29;100541.83;111043;1212;112691;-60
2023/05/02 05:24:01;;;;;;;19.60;9.50;;;;;;;11.44;61.45;100542.77;110844;1211;139610;-61
2023/05/02 05:26:26;;;;;;;15.70;8.20;;;;;;;11.47;61.41;100539.39;111179;1211;102062;-61
2023/05/02 05:28:51;;;;;;;19.60;8.50;;;;;;;11.50;61.49;100538.32;110931;1211;139944;-61
2023/05/02 05:31:17;;;;;;;17.70;8.80;;;;;;;11.57;61.64;100541.19;111140;1211;98968;-61
2023/05/02 05:33:42;;;;;;;18.30;9.60;;;;;;;11.62;61.67;100535.39;111032;1206;107691;-61
2023/05/02 05:36:10;;;;;;;16.10;8.80;;;;;;;11.67;61.72;100533.36;110941;1211;139377;-60
2023/05/02 05:38:36;;;;;;;25.00;9.70;;;;;;;11.71;61.74;100535.67;111106;1212;99094;-61
2023/05/02 05:41:02;;;;;;;15.60;8.90;;;;;;;11.75;61.72;100541.41;110990;1206;139587;-60
2023/05/02 05:43:27;;;;;;;19.40;9.20;;;;;;;11.80;61.94;100543.15;111118;1206;108002;-60
2023/05/02 05:45:54;;;;;;;19.70;9.40;;;;;;;11.87;61.99;100549.06;110935;1211;140640;-61
2023/05/02 05:48:19;;;;;;;14.20;8.90;;;;;;;11.93;62.13;100545.55;111244;1206;98996;-61
2023/05/02 05:50:45;;;;;;;18.00;8.60;;;;;;;12.00;62.16;100549.30;111065;1211;101437;-61
2023/05/02 05:53:10;;;;;;;17.10;9.40;;;;;;;12.07;62.32;100552.52;110910;1212;139600;-61
2023/05/02 05:55:37;;;;;;;16.60;10.30;;;;;;;12.14;62.39;100553.45;111200;1208;99102;-61
2023/05/02 05:58:02;;;;;;;20.80;10.10;;;;;;;12.21;62.63;100554.84;110907;1220;139771;-61
2023/05/02 06:00:28;;;;;;;19.30;10.90;;;;;;;12.30;62.68;100553.66;111031;1206;100145;-61
2023/05/02 06:02:54;;;;;;;25.70;11.90;;;;;;;12.40;62.79;100560.46;111100;1212;99019;-61
2023/05/02 06:05:19;;;;;;;20.90;10.30;;;;;;;12.49;62.81;100564.27;110986;1211;139746;-61
2023/05/02 06:07:45;;;;;;;17.00;10.40;;;;;;;12.55;62.94;100570.81;111090;1211;97832;-62
2023/05/02 06:10:10;;;;;;;20.10;10.80;;;;;;;12.63;63.17;100578.59;111033;1205;140847;-61
2023/05/02 06:12:35;;;;;;;22.30;11.30;;;;;;;12.73;63.24;100580.27;111099;1216;98967;-61
2023/05/02 06:15:01;;;;;;;21.50;9.80;;;;;;;12.78;63.32;100584.46;111115;1209;99045;-61
2023/05/02 06:17:26;;;;;;;19.20;9.20;;;;;;;12.80;63.43;100592.41;110921;1211;139094;-61
2023/05/02 06:19:51;;;;;;;17.80;10.00;;;;;;;12.85;63.53;100596.80;111073;1211;99081;-61
2023/05/02 06:22:17;;;;;;;23.00;11.80;;;;;;;12.93;63.62;100601.05;111070;1211;139930;-61
2023/05/02 06:24:42;;;;;;;22.40;10.30;;;;;;;12.97;63.59;100604.25;111043;1206;99136;-61
2023/05/02 06:27:07;;;;;;;20.20;9.80;;;;;;;13.02;63.62;100600.88;111130;1205;98981;-62
2023/05/02 06:29:33;;;;;;;18.40;9.20;;;;;;;13.10;63.76;100605.30;110932;1211;139466;-62
2023/05/02 06:31:58;;;;;;;20.10;10.20;;;;;;;13.15;63.57;100604.12;111069;1205;99031;-61
2023/05/02 06:34:23;;;;;;;19.30;11.20;;;;;;;13.24;63.76;100612.05;110769;1206;138556;-61
2023/05/02 06:36:54;;;;;;;22.60;11.10;;;;;;;13.36;63.63;100611.63;110565;1210;100032;-60
2023/05/02 06:39:19;;;;;;;21.10;10.40;;;;;;;13.44;63.52;100617.27;111011;1212;98932;-61
2023/05/02 06:41:44;;;;;;;17.70;8.90;;;;;;;13.49;63.43;100618.23;110835;1212;139240;-59
2023/05/02 06:44:10;;;;;;;16.60;8.40;;;;;;;13.50;63.36;100618.54;111212;1211;99053;-59
2023/05/02 06:46:35;;;;;;;15.10;9.00;;;;;;;13.55;63.39;100622.36;110766;1211;139617;-60
2023/05/02 06:49:00;;;;;;;13.80;7.80;;;;;;;13.65;63.37;100618.92;111048;1212;102732;-60
2023/05/02 06:51:26;;;;;;;15.00;8.50;;;;;;;13.76;63.30;100626.07;111062;1206;98926;-59
2023/05/02 06:53:51;;;;;;;13.60;7.50;;;;;;;13.83;63.13;100635.14;111002;1211;139471;-59
2023/05/02 06:56:17;;;;;;;12.00;6.10;;;;;;;13.86;62.98;100638.20;111153;1206;98932;-59
2023/05/02 06:58:42;;;;;;;12.80;6.60;;;;;;;13.92;63.05;100641.44;110868;1212;139911;-59
2023/05/02 07:01:07;;;;;;;11.50;6.70;;;;;;;13.98;62.90;100645.77;111219;1211;99613;-59
2023/05/02 07:03:33;;;;;;;13.30;6.00;;;;;;;14.06;62.86;100648.03;111005;1209;98962;-59
2023/05/02 07:06:00;;;;;;;11.10;6.80;;;;;;;14.12;62.76;100648.56;110954;1210;138716;-59
2023/05/02 07:08:25;;;;;;;11.30;7.10;;;;;;;14.15;62.70;100651.29;111056;1212;99939;-59
2023/05/02 07:10:50;;;;;;;15.70;6.00;;;;;;;14.23;62.62;100657.11;110881;1211;138877;-60
2023/05/02 07:13:15;;;;;;;14.30;6.80;;;;;;;14.28;62.45;100666.86;111041;1211;102846;-60
2023/05/02 07:15:42;;;;;;;12.80;6.40;;;;;;;14.26;62.33;100669.66;111055;1206;99005;-60
2023/05/02 07:18:07;;;;;;;11.80;6.80;;;;;;;14.23;62.27;100672.56;110887;1206;138556;-60
2023/05/02 07:20:32;;;;;;;13.30;6.60;;;;;;;14.17;62.23;100680.84;111008;1211;102725;-60
2023/05/02 07:22:57;;;;;;;14.00;6.60;;;;;;;14.10;62.18;100676.39;110965;1212;139193;-60
2023/05/02 07:25:22;;;;;;;9.80;6.40;;;;;;;14.02;62.12;100684.77;111134;1206;99030;-60
2023/05/02 07:27:48;;;;;;;14.90;7.50;;;;;;;14.02;62.23;100694.98;111023;1211;99066;-59
2023/05/02 07:30:13;;;;;;;16.20;6.80;;;;;;;14.09;62.20;100693.31;110960;1205;139313;-60
2023/05/02 07:32:38;;;;;;;9.00;6.00;;;;;;;14.14;62.09;100702.93;110957;1205;98936;-60
2023/05/02 07:35:04;;;;;;;13.20;6.20;;;;;;;14.13;62.14;100707.11;110782;1210;138633;-60
2023/05/02 07:37:34;;;;;;;8.60;6.00;;;;;;;14.10;62.10;100704.02;111041;1211;99394;-60
2023/05/02 07:39:59;;;;;;;10.60;6.20;;;;;;;14.09;62.00;100712.73;110889;1206;139357;-60
2023/05/02 07:42:31;;;;;;;11.70;6.30;;;;;;;14.14;62.06;100713.17;110888;1211;99142;-61
2023/05/02 07:44:57;;;;;;;10.80;6.50;;;;;;;14.23;61.93;100714.79;111014;1207;99130;-60
2023/05/02 07:47:23;;;;;;;15.30;6.60;;;;;;;14.31;61.83;100718.50;110951;1211;138088;-60
2023/05/02 07:49:52;;;;;;;14.10;5.80;;;;;;;14.33;61.65;100718.55;111074;1206;99082;-60
2023/05/02 07:52:18;;;;;;;9.50;5.40;;;;;;;14.37;61.48;100724.39;110855;1212;139034;-60
2023/05/02 07:54:44;;;;;;;14.00;5.40;;;;;;;14.40;61.15;100727.10;110905;1211;98980;-60
2023/05/02 07:57:11;;;;;;;10.20;5.10;;;;;;;14.44;61.07;100731.59;111058;1206;99483;-60
2023/05/02 07:59:36;;;;;;;10.90;5.30;;;;;;;14.47;60.86;100732.47;110892;1211;138831;-61
2023/05/02 08:02:02;;;;;;;12.60;6.20;;;;;;;14.47;60.61;100736.63;111079;1205;98727;-60
2023/05/02 08:04:27;;;;;;;8.50;5.00;;;;;;;14.48;60.45;100738.91;111055;1209;139029;-60
2023/05/02 08:06:53;;;;;;;15.40;5.30;;;;;;;14.46;60.25;100737.91;111064;1206;102176;-60
2023/05/02 08:09:19;;;;;;;8.20;4.50;;;;;;;14.51;60.23;100738.40;111047;1211;99081;-59
2023/05/02 08:11:45;;;;;;;8.80;4.90;;;;;;;14.59;59.87;100740.77;110799;1211;138564;-60
2023/05/02 08:14:13;;;;;;;12.30;5.80;;;;;;;14.64;59.63;100741.17;113245;1206;113020;-61
2023/05/02 08:16:39;;;;;;;9.40;5.20;;;;;;;14.70;59.43;100737.59;111157;1210;138690;-60
2023/05/02 08:19:04;;;;;;;10.10;5.00;;;;;;;14.79;59.35;100738.73;110805;1210;100384;-60
2023/05/02 08:21:31;;;;;;;9.20;5.20;;;;;;;14.81;59.13;100744.86;111067;1206;98946;-61
2023/05/02 08:23:57;;;;;;;10.90;5.30;;;;;;;14.86;59.17;100746.73;110902;1211;140138;-60
2023/05/02 08:26:23;;;;;;;12.10;6.20;;;;;;;14.88;58.82;100754.01;111362;1206;99338;-61
2023/05/02 08:28:50;;;;;;;7.00;4.10;;;;;;;14.93;58.64;100759.98;111304;1210;139061;-60
2023/05/02 08:31:16;;;;;;;10.30;5.10;;;;;;;14.99;58.19;100762.55;111307;1207;98956;-61
2023/05/02 08:33:41;;;;;;;12.10;5.30;;;;;;;15.00;58.00;100764.41;111199;1210;98935;-61
2023/05/02 08:36:11;;;;;;;9.90;5.00;;;;;;;15.07;58.09;100764.58;111007;1206;142481;-62
2023/05/02 08:38:36;;;;;;;10.60;5.60;;;;;;;15.15;57.98;100771.10;111126;1210;108164;-61
2023/05/02 08:41:02;;;;;;;12.80;5.90;;;;;;;15.19;57.79;100774.27;110879;1206;138910;-61
2023/05/02 08:43:31;;;;;;;9.80;5.60;;;;;;;15.22;57.68;100769.02;111131;1211;98952;-61
2023/05/02 08:45:58;;;;;;;11.70;6.00;;;;;;;15.26;57.70;100771.86;110896;1211;139511;-61
2023/05/02 08:48:25;;;;;;;13.60;5.80;;;;;;;15.30;57.68;100777.41;111145;1211;98954;-60
2023/05/02 08:50:52;;;;;;;11.00;6.70;;;;;;;15.33;57.53;100776.09;111014;1206;99038;-61
2023/05/02 08:53:18;;;;;;;8.00;5.30;;;;;;;15.42;57.56;100771.45;110910;1211;138835;-61
2023/05/02 08:55:45;;;;;;;10.10;5.10;;;;;;;15.54;57.68;100773.91;111046;1205;98726;-61
2023/05/02 08:58:11;;;;;;;14.00;5.60;;;;;;;15.66;57.52;100775.52;110925;1211;139431;-61
2023/05/02 09:00:41;;;;;;;10.00;6.00;;;;;;;15.75;57.39;100776.73;111059;1206;102450;-61
2023/05/02 09:03:20;;;;;;;10.20;5.20;;;;;;;15.77;57.15;100779.52;111196;1205;98930;-61
2023/05/02 09:05:52;;;;;;;10.00;5.50;;;;;;;15.87;57.03;100780.28;111004;1211;138152;-61
2023/05/02 09:08:22;;;;;;;13.10;5.60;;;;;;;16.00;56.93;100779.84;111092;1212;100152;-61
2023/05/02 09:10:48;;;;;;;9.90;5.90;;;;;;;16.13;56.90;100776.31;110943;1211;138927;-61
2023/05/02 09:13:30;;;;;;;11.50;5.50;;;;;;;16.26;56.83;100779.94;111112;1212;98985;-61
2023/05/02 09:16:03;;;;;;;9.20;4.70;;;;;;;16.37;56.45;100785.58;110869;1209;141159;-62
2023/05/02 09:18:34;;;;;;;9.30;5.10;;;;;;;16.41;56.05;100789.09;111010;1211;113033;-61
2023/05/02 09:21:00;;;;;;;;;;;;;;;16.48;55.78;100793.28;111062;1211;99948;-61
2023/05/02 09:23:34;;;;;;;9.10;5.50;;;;;;;16.54;54.93;100795.27;110945;1211;125147;-61
2023/05/02 09:26:00;;;;;;;12.20;5.90;;;;;;;16.58;54.19;100799.00;111045;1208;100562;-61
2023/05/02 09:28:43;;;;;;;10.00;4.70;;;;;;;16.58;53.35;100793.73;110992;1211;139172;-61
2023/05/02 09:31:11;;;;;;;13.40;4.70;;;;;;;16.65;53.07;100795.08;111298;1210;112365;-61
2023/05/02 09:33:38;;;;;;;9.00;5.30;;;;;;;16.75;52.40;100800.04;111204;1211;100739;-62
2023/05/02 09:36:06;;;;;;;10.10;4.50;;;;;;;16.80;51.45;100804.38;111072;1211;138772;-62
2023/05/02 09:38:31;;;;;;;12.70;5.30;;;;;;;16.83;51.13;100802.01;111204;1209;99115;-62
2023/05/02 09:40:58;;;;;;;11.60;5.10;;;;;;;16.87;50.66;100802.30;110936;1210;138321;-62
2023/05/02 09:43:23;;;;;;;8.40;4.60;;;;;;;16.93;50.31;100800.65;111106;1206;99674;-62
2023/05/02 09:46:04;;;;;;;12.00;5.20;;;;;;;16.99;50.54;100799.88;111017;1211;108110;-61
2023/05/02 09:48:31;;;;;;;6.00;4.20;;;;;;;17.14;50.16;100812.38;111133;1211;99031;-62
2023/05/02 09:50:57;;;;;;;9.60;4.70;;;;;;;17.20;49.68;100808.73;111134;1208;99095;-65
2023/05/02 09:53:26;;;;;;;8.30;4.60;;;;;;;17.20;49.18;100814.50;110973;1211;140235;-66
2023/05/02 09:56:03;;;;;;;9.90;4.70;;;;;;;17.24;48.94;100813.17;111092;1211;99820;-65
2023/05/02 09:58:29;;;;;;;9.90;4.50;;;;;;;17.32;48.45;100819.98;111017;1211;139535;-66
2023/05/02 10:00:55;;;;;;;10.40;4.20;;;;;;;17.33;47.74;100824.11;111086;1206;99051;-64
2023/05/02 10:03:23;;;;;;;8.20;4.30;;;;;;;17.34;47.55;100826.19;111154;1211;98835;-65
2023/05/02 10:05:49;;;;;;;8.50;3.90;;;;;;;17.39;47.34;100828.39;111070;1211;138754;-64
2023/05/02 10:08:17;;;;;;;10.10;4.00;;;;;;;17.39;46.46;100834.71;111269;1206;98921;-67
2023/05/02 10:10:49;;;;;;;6.60;3.50;;;;;;;17.32;46.15;100831.54;110941;1206;140839;-68
2023/05/02 10:13:17;;;;;;;9.10;3.70;;;;;;;17.32;45.80;100835.52;111095;1211;99175;-65
2023/05/02 10:15:43;;;;;;;8.50;3.90;;;;;;;17.38;45.78;100831.69;111088;1206;104180;-66
2023/05/02 10:18:14;;;;;;;7.30;3.20;;;;;;;17.44;45.45;100832.33;110962;1211;138890;-65
2023/05/02 10:20:51;;;;;;;9.50;3.50;;;;;;;17.49;44.94;100834.00;111109;1206;99224;-63
2023/05/02 10:23:18;;;;;;;5.90;3.70;;;;;;;17.52;44.54;100834.48;111048;1211;138542;-63
2023/05/02 10:25:44;;;;;;;7.50;3.00;;;;;;;17.57;44.54;100834.13;111035;1210;98946;-63
2023/05/02 10:28:10;;;;;;;8.40;3.30;;;;;;;17.70;44.56;100839.39;111068;1219;141502;-63
2023/05/02 10:30:39;;;;;;;13.00;3.90;;;;;;;17.80;44.58;100840.29;111192;1211;99058;-63
2023/05/02 10:33:05;;;;;;;10.40;3.90;;;;;;;17.93;44.06;100846.85;110953;1211;98985;-63
2023/05/02 10:35:31;;;;;;;7.00;3.20;;;;;;;17.94;43.40;100855.85;110907;1207;138787;-62
2023/05/02 10:37:59;;;;;;;5.90;3.10;;;;;;;17.90;42.95;100853.77;111060;1211;99050;-63
2023/05/02 10:40:25;;;;;;;9.20;3.50;;;;;;;17.89;43.18;100854.94;110969;1210;138745;-63
2023/05/02 10:42:52;;;;;;;9.90;3.80;;;;;;;17.94;43.06;100856.91;111110;1205;100319;-64
2023/05/02 10:45:31;;;;;;;7.50;3.10;;;;;;;17.99;43.25;100858.50;111044;1207;99420;-64
2023/05/02 10:48:23;;;;;;;7.70;3.20;;;;;;;18.04;42.92;100856.87;110955;1208;138017;-64
2023/05/02 10:50:54;;;;;;;9.70;3.30;;;;;;;18.09;42.84;100854.20;111166;1212;99507;-64
2023/05/02 10:53:28;;;;;;;5.60;3.00;;;;;;;18.12;42.65;100855.07;111127;1210;138139;-65
2023/05/02 10:56:24;;;;;;;8.10;3.00;;;;;;;18.21;43.33;100852.80;111086;1220;98965;-63
2023/05/02 10:58:52;;;;;;;9.10;3.60;;;;;;;18.32;42.67;100854.84;110931;1210;138099;-64
2023/05/02 11:01:23;;;;;;;7.70;3.00;;;;;;;18.38;42.99;100865.63;111045;1205;103833;-65
2023/05/02 11:03:59;;;;;;;4.80;2.80;;;;;;;18.39;42.30;100862.80;110939;1211;98954;-64
2023/05/02 11:06:29;;;;;;;12.10;3.30;;;;;;;18.36;42.17;100861.09;110895;1211;137933;-64
2023/05/02 11:09:20;;;;;;;6.00;2.80;;;;;;;18.47;42.53;100861.55;111252;1211;100358;-64
2023/05/02 11:11:47;;;;;;;7.00;3.10;;;;;;;18.65;42.66;100866.24;110835;1205;138792;-65